sensor_id;sensor_type;location;lat;lon;timestamp;temperature;humidity
46784;DHT22;32544;52.832;13.816;2022-09-09T00:00:18;24.20;51.80
46784;DHT22;32544;52.832;13.816;2022-09-09T00:02:21;24.20;51.80
46784;DHT22;32544;52.832;13.816;2022-09-09T00:03:27;24.20;51.90
46784;DHT22;32544;52.832;13.816;2022-09-09T00:04:33;24.20;51.80
46784;DHT22;32544;52.832;13.816;2022-09-09T00:07:54;24.20;51.80
46784;DHT22;32544;52.832;13.816;2022-09-09T00:11:13;24.20;51.80
46784;DHT22;32544;52.832;13.816;2022-09-09T00:13:32;24.20;51.70
46784;DHT22;32544;52.832;13.816;2022-09-09T00:16:00;24.20;51.70
46784;DHT22;32544;52.832;13.816;2022-09-09T00:17:06;24.20;51.80
46784;DHT22;32544;52.832;13.816;2022-09-09T00:18:21;24.20;51.80
46784;DHT22;32544;52.832;13.816;2022-09-09T00:21:53;24.20;52.30
46784;DHT22;32544;52.832;13.816;2022-09-09T00:23:20;24.20;51.80
46784;DHT22;32544;52.832;13.816;2022-09-09T00:25:08;24.20;51.80
46784;DHT22;32544;52.832;13.816;2022-09-09T00:25:43;24.20;51.70
46784;DHT22;32544;52.832;13.816;2022-09-09T00:26:48;24.20;51.70
46784;DHT22;32544;52.832;13.816;2022-09-09T00:27:51;24.20;51.70
46784;DHT22;32544;52.832;13.816;2022-09-09T00:29:05;24.20;51.70
46784;DHT22;32544;52.832;13.816;2022-09-09T00:31:16;24.20;51.80
46784;DHT22;32544;52.832;13.816;2022-09-09T00:32:19;24.20;51.80
46784;DHT22;32544;52.832;13.816;2022-09-09T00:33:21;24.20;51.70
46784;DHT22;32544;52.832;13.816;2022-09-09T00:34:24;24.20;51.80
46784;DHT22;32544;52.832;13.816;2022-09-09T00:36:27;24.20;51.80
46784;DHT22;32544;52.832;13.816;2022-09-09T00:37:29;24.20;51.80
46784;DHT22;32544;52.832;13.816;2022-09-09T00:38:37;24.20;51.80
46784;DHT22;32544;52.832;13.816;2022-09-09T00:39:42;24.20;51.70
46784;DHT22;32544;52.832;13.816;2022-09-09T00:40:49;24.20;51.70
46784;DHT22;32544;52.832;13.816;2022-09-09T00:46:16;24.20;51.70
46784;DHT22;32544;52.832;13.816;2022-09-09T00:48:10;24.20;51.80
46784;DHT22;32544;52.832;13.816;2022-09-09T00:50:31;24.20;51.90
46784;DHT22;32544;52.832;13.816;2022-09-09T00:52:54;24.10;52.00
46784;DHT22;32544;52.832;13.816;2022-09-09T00:56:36;24.10;52.10
46784;DHT22;32544;52.832;13.816;2022-09-09T00:57:42;24.10;52.10
46784;DHT22;32544;52.832;13.816;2022-09-09T00:58:43;24.10;52.10
46784;DHT22;32544;52.832;13.816;2022-09-09T00:59:57;24.10;52.10
46784;DHT22;32544;52.832;13.816;2022-09-09T01:02:08;24.10;52.00
46784;DHT22;32544;52.832;13.816;2022-09-09T01:04:34;24.20;51.90
46784;DHT22;32544;52.832;13.816;2022-09-09T01:06:42;24.20;51.90
46784;DHT22;32544;52.832;13.816;2022-09-09T01:07:49;24.20;51.80
46784;DHT22;32544;52.832;13.816;2022-09-09T01:09:57;24.20;51.80
46784;DHT22;32544;52.832;13.816;2022-09-09T01:10:58;24.20;51.80
46784;DHT22;32544;52.832;13.816;2022-09-09T01:12:09;24.20;51.70
46784;DHT22;32544;52.832;13.816;2022-09-09T01:13:15;24.20;51.70
46784;DHT22;32544;52.832;13.816;2022-09-09T01:15:22;24.20;51.70
46784;DHT22;32544;52.832;13.816;2022-09-09T01:16:25;24.20;51.70
46784;DHT22;32544;52.832;13.816;2022-09-09T01:17:31;24.20;51.60
46784;DHT22;32544;52.832;13.816;2022-09-09T01:18:46;24.20;51.60
46784;DHT22;32544;52.832;13.816;2022-09-09T01:20:31;24.20;51.60
46784;DHT22;32544;52.832;13.816;2022-09-09T01:26:42;24.20;51.60
46784;DHT22;32544;52.832;13.816;2022-09-09T01:27:49;24.20;51.60
46784;DHT22;32544;52.832;13.816;2022-09-09T01:28:51;24.20;51.60
46784;DHT22;32544;52.832;13.816;2022-09-09T01:30:10;24.20;51.50
46784;DHT22;32544;52.832;13.816;2022-09-09T01:31:14;24.20;51.50
46784;DHT22;32544;52.832;13.816;2022-09-09T01:33:37;24.20;51.50
46784;DHT22;32544;52.832;13.816;2022-09-09T01:34:38;24.20;51.50
46784;DHT22;32544;52.832;13.816;2022-09-09T01:37:51;24.20;51.50
46784;DHT22;32544;52.832;13.816;2022-09-09T01:38:52;24.20;51.50
46784;DHT22;32544;52.832;13.816;2022-09-09T01:39:53;24.20;51.40
46784;DHT22;32544;52.832;13.816;2022-09-09T01:40:54;24.20;51.50
46784;DHT22;32544;52.832;13.816;2022-09-09T01:42:00;24.20;51.40
46784;DHT22;32544;52.832;13.816;2022-09-09T01:43:02;24.20;51.40
46784;DHT22;32544;52.832;13.816;2022-09-09T01:44:03;24.20;51.30
46784;DHT22;32544;52.832;13.816;2022-09-09T01:45:07;24.20;51.40
46784;DHT22;32544;52.832;13.816;2022-09-09T01:46:08;24.20;51.40
46784;DHT22;32544;52.832;13.816;2022-09-09T01:47:10;24.20;51.40
46784;DHT22;32544;52.832;13.816;2022-09-09T01:48:33;24.20;51.30
46784;DHT22;32544;52.832;13.816;2022-09-09T01:49:40;24.20;51.40
46784;DHT22;32544;52.832;13.816;2022-09-09T01:50:50;24.20;51.30
46784;DHT22;32544;52.832;13.816;2022-09-09T01:51:55;24.20;51.30
46784;DHT22;32544;52.832;13.816;2022-09-09T01:53:06;24.20;51.30
46784;DHT22;32544;52.832;13.816;2022-09-09T01:54:07;24.20;51.30
46784;DHT22;32544;52.832;13.816;2022-09-09T01:55:08;24.20;51.30
46784;DHT22;32544;52.832;13.816;2022-09-09T01:57:15;24.20;51.40
46784;DHT22;32544;52.832;13.816;2022-09-09T02:00:32;24.20;51.50
46784;DHT22;32544;52.832;13.816;2022-09-09T02:02:42;24.20;51.70
46784;DHT22;32544;52.832;13.816;2022-09-09T02:03:51;24.20;51.60
46784;DHT22;32544;52.832;13.816;2022-09-09T02:04:54;24.20;51.80
46784;DHT22;32544;52.832;13.816;2022-09-09T02:09:41;24.20;52.10
46784;DHT22;32544;52.832;13.816;2022-09-09T02:11:51;24.20;52.00
46784;DHT22;32544;52.832;13.816;2022-09-09T02:13:11;24.20;51.90
46784;DHT22;32544;52.832;13.816;2022-09-09T02:14:14;24.20;51.90
46784;DHT22;32544;52.832;13.816;2022-09-09T02:15:23;24.20;51.90
46784;DHT22;32544;52.832;13.816;2022-09-09T02:17:39;24.20;51.80
46784;DHT22;32544;52.832;13.816;2022-09-09T02:20:19;24.20;51.70
46784;DHT22;32544;52.832;13.816;2022-09-09T02:21:28;24.20;51.60
46784;DHT22;32544;52.832;13.816;2022-09-09T02:22:30;24.20;51.60
46784;DHT22;32544;52.832;13.816;2022-09-09T02:23:37;24.20;51.60
46784;DHT22;32544;52.832;13.816;2022-09-09T02:24:42;24.20;51.50
46784;DHT22;32544;52.832;13.816;2022-09-09T02:25:48;24.20;51.50
46784;DHT22;32544;52.832;13.816;2022-09-09T02:26:55;24.20;51.50
46784;DHT22;32544;52.832;13.816;2022-09-09T02:27:58;24.20;51.50
46784;DHT22;32544;52.832;13.816;2022-09-09T02:28:59;24.20;51.50
46784;DHT22;32544;52.832;13.816;2022-09-09T02:30:02;24.20;51.50
46784;DHT22;32544;52.832;13.816;2022-09-09T02:31:12;24.20;51.50
46784;DHT22;32544;52.832;13.816;2022-09-09T02:32:15;24.20;51.70
46784;DHT22;32544;52.832;13.816;2022-09-09T02:33:17;24.20;51.80
46784;DHT22;32544;52.832;13.816;2022-09-09T02:34:21;24.20;51.70
46784;DHT22;32544;52.832;13.816;2022-09-09T02:35:24;24.20;51.80
46784;DHT22;32544;52.832;13.816;2022-09-09T02:36:25;24.20;52.30
46784;DHT22;32544;52.832;13.816;2022-09-09T02:37:28;24.20;51.70
46784;DHT22;32544;52.832;13.816;2022-09-09T02:38:31;24.20;51.80
46784;DHT22;32544;52.832;13.816;2022-09-09T02:39:40;24.20;51.70
46784;DHT22;32544;52.832;13.816;2022-09-09T02:40:43;24.20;51.60
46784;DHT22;32544;52.832;13.816;2022-09-09T02:41:44;24.20;51.60
46784;DHT22;32544;52.832;13.816;2022-09-09T02:42:46;24.20;51.60
46784;DHT22;32544;52.832;13.816;2022-09-09T02:43:47;24.20;51.80
46784;DHT22;32544;52.832;13.816;2022-09-09T02:44:49;24.20;51.80
46784;DHT22;32544;52.832;13.816;2022-09-09T02:47:38;24.20;51.60
46784;DHT22;32544;52.832;13.816;2022-09-09T02:48:30;24.20;51.80
46784;DHT22;32544;52.832;13.816;2022-09-09T02:50:54;24.20;51.70
46784;DHT22;32544;52.832;13.816;2022-09-09T02:54:24;24.20;51.50
46784;DHT22;32544;52.832;13.816;2022-09-09T02:55:37;24.20;51.50
46784;DHT22;32544;52.832;13.816;2022-09-09T02:56:40;24.20;51.60
46784;DHT22;32544;52.832;13.816;2022-09-09T02:57:44;24.20;51.60
46784;DHT22;32544;52.832;13.816;2022-09-09T02:58:48;24.20;51.50
46784;DHT22;32544;52.832;13.816;2022-09-09T02:59:50;24.20;51.50
46784;DHT22;32544;52.832;13.816;2022-09-09T03:00:53;24.20;51.60
46784;DHT22;32544;52.832;13.816;2022-09-09T03:01:54;24.20;51.60
46784;DHT22;32544;52.832;13.816;2022-09-09T03:02:55;24.20;51.60
46784;DHT22;32544;52.832;13.816;2022-09-09T03:03:56;24.20;51.60
46784;DHT22;32544;52.832;13.816;2022-09-09T03:04:57;24.10;51.60
46784;DHT22;32544;52.832;13.816;2022-09-09T03:05:58;24.20;51.70
46784;DHT22;32544;52.832;13.816;2022-09-09T03:07:01;24.20;51.60
46784;DHT22;32544;52.832;13.816;2022-09-09T03:08:04;24.20;51.50
46784;DHT22;32544;52.832;13.816;2022-09-09T03:09:05;24.20;51.50
46784;DHT22;32544;52.832;13.816;2022-09-09T03:10:06;24.20;51.50
46784;DHT22;32544;52.832;13.816;2022-09-09T03:11:09;24.20;51.50
46784;DHT22;32544;52.832;13.816;2022-09-09T03:12:11;24.20;51.50
46784;DHT22;32544;52.832;13.816;2022-09-09T03:13:12;24.20;51.50
46784;DHT22;32544;52.832;13.816;2022-09-09T03:14:15;24.20;51.50
46784;DHT22;32544;52.832;13.816;2022-09-09T03:15:17;24.20;51.60
46784;DHT22;32544;52.832;13.816;2022-09-09T03:16:18;24.20;51.50
46784;DHT22;32544;52.832;13.816;2022-09-09T03:17:22;24.20;51.70
46784;DHT22;32544;52.832;13.816;2022-09-09T03:18:27;24.10;51.60
46784;DHT22;32544;52.832;13.816;2022-09-09T03:19:29;24.10;51.60
46784;DHT22;32544;52.832;13.816;2022-09-09T03:20:30;24.10;51.50
46784;DHT22;32544;52.832;13.816;2022-09-09T03:21:31;24.10;51.50
46784;DHT22;32544;52.832;13.816;2022-09-09T03:22:33;24.20;51.60
46784;DHT22;32544;52.832;13.816;2022-09-09T03:23:34;24.10;51.50
46784;DHT22;32544;52.832;13.816;2022-09-09T03:24:37;24.10;51.50
46784;DHT22;32544;52.832;13.816;2022-09-09T03:25:38;24.10;51.60
46784;DHT22;32544;52.832;13.816;2022-09-09T03:26:40;24.10;51.60
46784;DHT22;32544;52.832;13.816;2022-09-09T03:27:44;24.10;51.50
46784;DHT22;32544;52.832;13.816;2022-09-09T03:28:46;24.10;51.50
46784;DHT22;32544;52.832;13.816;2022-09-09T03:29:50;24.10;51.50
46784;DHT22;32544;52.832;13.816;2022-09-09T03:30:57;24.10;51.50
46784;DHT22;32544;52.832;13.816;2022-09-09T03:31:58;24.10;51.50
46784;DHT22;32544;52.832;13.816;2022-09-09T03:32:58;24.20;51.50
46784;DHT22;32544;52.832;13.816;2022-09-09T03:34:04;24.20;51.50
46784;DHT22;32544;52.832;13.816;2022-09-09T03:35:07;24.20;51.50
46784;DHT22;32544;52.832;13.816;2022-09-09T03:36:08;24.20;51.50
46784;DHT22;32544;52.832;13.816;2022-09-09T03:37:09;24.20;51.40
46784;DHT22;32544;52.832;13.816;2022-09-09T03:38:10;24.20;51.40
46784;DHT22;32544;52.832;13.816;2022-09-09T03:39:12;24.20;51.50
46784;DHT22;32544;52.832;13.816;2022-09-09T03:40:16;24.20;51.40
46784;DHT22;32544;52.832;13.816;2022-09-09T03:41:19;24.20;52.10
46784;DHT22;32544;52.832;13.816;2022-09-09T03:42:22;24.20;51.50
46784;DHT22;32544;52.832;13.816;2022-09-09T03:43:26;24.20;51.50
46784;DHT22;32544;52.832;13.816;2022-09-09T03:44:27;24.10;51.50
46784;DHT22;32544;52.832;13.816;2022-09-09T03:45:28;24.20;51.50
46784;DHT22;32544;52.832;13.816;2022-09-09T03:46:29;24.10;51.50
46784;DHT22;32544;52.832;13.816;2022-09-09T03:47:31;24.10;51.50
46784;DHT22;32544;52.832;13.816;2022-09-09T03:48:38;24.10;51.50
46784;DHT22;32544;52.832;13.816;2022-09-09T03:49:39;24.10;51.50
46784;DHT22;32544;52.832;13.816;2022-09-09T03:50:46;24.10;51.60
46784;DHT22;32544;52.832;13.816;2022-09-09T03:51:47;24.10;51.50
46784;DHT22;32544;52.832;13.816;2022-09-09T03:52:48;24.10;51.50
46784;DHT22;32544;52.832;13.816;2022-09-09T03:53:54;24.10;51.50
46784;DHT22;32544;52.832;13.816;2022-09-09T03:54:59;24.10;51.50
46784;DHT22;32544;52.832;13.816;2022-09-09T03:56:00;24.20;51.50
46784;DHT22;32544;52.832;13.816;2022-09-09T03:57:02;24.20;51.40
46784;DHT22;32544;52.832;13.816;2022-09-09T03:58:02;24.20;51.30
46784;DHT22;32544;52.832;13.816;2022-09-09T03:59:03;24.20;51.30
46784;DHT22;32544;52.832;13.816;2022-09-09T04:00:06;24.20;51.30
46784;DHT22;32544;52.832;13.816;2022-09-09T04:01:16;24.20;51.30
46784;DHT22;32544;52.832;13.816;2022-09-09T04:02:18;24.20;51.40
46784;DHT22;32544;52.832;13.816;2022-09-09T04:03:19;24.20;51.40
46784;DHT22;32544;52.832;13.816;2022-09-09T04:04:20;24.20;51.30
46784;DHT22;32544;52.832;13.816;2022-09-09T04:05:20;24.20;51.40
46784;DHT22;32544;52.832;13.816;2022-09-09T04:06:22;24.20;51.30
46784;DHT22;32544;52.832;13.816;2022-09-09T04:07:23;24.20;51.40
46784;DHT22;32544;52.832;13.816;2022-09-09T04:08:24;24.20;51.20
46784;DHT22;32544;52.832;13.816;2022-09-09T04:09:25;24.20;51.40
46784;DHT22;32544;52.832;13.816;2022-09-09T04:10:26;24.20;51.40
46784;DHT22;32544;52.832;13.816;2022-09-09T04:11:29;24.20;51.40
46784;DHT22;32544;52.832;13.816;2022-09-09T04:12:32;24.20;51.40
46784;DHT22;32544;52.832;13.816;2022-09-09T04:13:34;24.20;51.40
46784;DHT22;32544;52.832;13.816;2022-09-09T04:14:35;24.20;51.40
46784;DHT22;32544;52.832;13.816;2022-09-09T04:15:36;24.20;51.40
46784;DHT22;32544;52.832;13.816;2022-09-09T04:16:37;24.20;51.40
46784;DHT22;32544;52.832;13.816;2022-09-09T04:17:38;24.20;51.40
46784;DHT22;32544;52.832;13.816;2022-09-09T04:18:39;24.20;51.40
46784;DHT22;32544;52.832;13.816;2022-09-09T04:19:39;24.20;51.40
46784;DHT22;32544;52.832;13.816;2022-09-09T04:20:40;24.10;51.40
46784;DHT22;32544;52.832;13.816;2022-09-09T04:21:41;24.10;51.50
46784;DHT22;32544;52.832;13.816;2022-09-09T04:22:41;24.10;51.50
46784;DHT22;32544;52.832;13.816;2022-09-09T04:23:42;24.10;51.40
46784;DHT22;32544;52.832;13.816;2022-09-09T04:24:43;24.10;51.40
46784;DHT22;32544;52.832;13.816;2022-09-09T04:25:53;24.10;51.30
46784;DHT22;32544;52.832;13.816;2022-09-09T04:26:54;24.10;51.40
46784;DHT22;32544;52.832;13.816;2022-09-09T04:27:57;24.20;51.40
46784;DHT22;32544;52.832;13.816;2022-09-09T04:28:58;24.20;51.30
46784;DHT22;32544;52.832;13.816;2022-09-09T04:29:59;24.20;51.40
46784;DHT22;32544;52.832;13.816;2022-09-09T04:31:05;24.20;51.30
46784;DHT22;32544;52.832;13.816;2022-09-09T04:32:06;24.20;51.30
46784;DHT22;32544;52.832;13.816;2022-09-09T04:33:07;24.20;51.40
46784;DHT22;32544;52.832;13.816;2022-09-09T04:34:11;24.20;51.30
46784;DHT22;32544;52.832;13.816;2022-09-09T04:35:11;24.10;51.30
46784;DHT22;32544;52.832;13.816;2022-09-09T04:36:12;24.20;51.40
46784;DHT22;32544;52.832;13.816;2022-09-09T04:37:13;24.10;51.30
46784;DHT22;32544;52.832;13.816;2022-09-09T04:38:15;24.10;51.30
46784;DHT22;32544;52.832;13.816;2022-09-09T04:39:16;24.10;51.50
46784;DHT22;32544;52.832;13.816;2022-09-09T04:40:16;24.20;51.50
46784;DHT22;32544;52.832;13.816;2022-09-09T04:41:17;24.10;51.30
46784;DHT22;32544;52.832;13.816;2022-09-09T04:42:19;24.10;51.40
46784;DHT22;32544;52.832;13.816;2022-09-09T04:43:21;24.10;51.30
46784;DHT22;32544;52.832;13.816;2022-09-09T04:44:23;24.10;51.30
46784;DHT22;32544;52.832;13.816;2022-09-09T04:45:23;24.10;51.30
46784;DHT22;32544;52.832;13.816;2022-09-09T04:46:24;24.10;51.30
46784;DHT22;32544;52.832;13.816;2022-09-09T04:47:25;24.10;51.30
46784;DHT22;32544;52.832;13.816;2022-09-09T04:48:27;24.10;51.30
46784;DHT22;32544;52.832;13.816;2022-09-09T04:49:28;24.10;51.30
46784;DHT22;32544;52.832;13.816;2022-09-09T04:50:31;24.10;51.30
46784;DHT22;32544;52.832;13.816;2022-09-09T04:51:32;24.10;51.40
46784;DHT22;32544;52.832;13.816;2022-09-09T04:52:35;24.10;51.30
46784;DHT22;32544;52.832;13.816;2022-09-09T04:53:36;24.20;51.30
46784;DHT22;32544;52.832;13.816;2022-09-09T04:54:38;24.10;51.20
46784;DHT22;32544;52.832;13.816;2022-09-09T04:55:39;24.10;51.30
46784;DHT22;32544;52.832;13.816;2022-09-09T04:56:41;24.10;51.40
46784;DHT22;32544;52.832;13.816;2022-09-09T04:57:42;24.10;51.30
46784;DHT22;32544;52.832;13.816;2022-09-09T04:58:45;24.10;51.40
46784;DHT22;32544;52.832;13.816;2022-09-09T04:59:47;24.10;51.40
46784;DHT22;32544;52.832;13.816;2022-09-09T05:00:49;24.10;51.40
46784;DHT22;32544;52.832;13.816;2022-09-09T05:01:50;24.20;51.40
46784;DHT22;32544;52.832;13.816;2022-09-09T05:02:50;24.10;51.40
46784;DHT22;32544;52.832;13.816;2022-09-09T05:03:52;24.10;51.50
46784;DHT22;32544;52.832;13.816;2022-09-09T05:04:56;24.20;51.50
46784;DHT22;32544;52.832;13.816;2022-09-09T05:06:06;24.10;51.50
46784;DHT22;32544;52.832;13.816;2022-09-09T05:07:09;24.10;51.50
46784;DHT22;32544;52.832;13.816;2022-09-09T05:08:10;24.20;51.50
46784;DHT22;32544;52.832;13.816;2022-09-09T05:09:11;24.10;51.30
46784;DHT22;32544;52.832;13.816;2022-09-09T05:10:12;24.10;51.40
46784;DHT22;32544;52.832;13.816;2022-09-09T05:11:23;24.10;51.50
46784;DHT22;32544;52.832;13.816;2022-09-09T05:12:26;24.10;51.50
46784;DHT22;32544;52.832;13.816;2022-09-09T05:13:27;24.10;51.50
46784;DHT22;32544;52.832;13.816;2022-09-09T05:14:28;24.10;51.50
46784;DHT22;32544;52.832;13.816;2022-09-09T05:15:30;24.10;51.40
46784;DHT22;32544;52.832;13.816;2022-09-09T05:16:31;24.10;51.60
46784;DHT22;32544;52.832;13.816;2022-09-09T05:17:32;24.10;51.50
46784;DHT22;32544;52.832;13.816;2022-09-09T05:18:32;24.10;51.50
46784;DHT22;32544;52.832;13.816;2022-09-09T05:19:33;24.10;51.60
46784;DHT22;32544;52.832;13.816;2022-09-09T05:20:34;24.10;51.50
46784;DHT22;32544;52.832;13.816;2022-09-09T05:21:36;24.10;51.50
46784;DHT22;32544;52.832;13.816;2022-09-09T05:22:37;24.10;51.40
46784;DHT22;32544;52.832;13.816;2022-09-09T05:23:38;24.10;51.50
46784;DHT22;32544;52.832;13.816;2022-09-09T05:24:38;24.10;51.50
46784;DHT22;32544;52.832;13.816;2022-09-09T05:25:39;24.10;51.50
46784;DHT22;32544;52.832;13.816;2022-09-09T05:26:42;24.10;51.40
46784;DHT22;32544;52.832;13.816;2022-09-09T05:27:43;24.10;51.30
46784;DHT22;32544;52.832;13.816;2022-09-09T05:28:44;24.10;51.40
46784;DHT22;32544;52.832;13.816;2022-09-09T05:29:45;24.10;51.30
46784;DHT22;32544;52.832;13.816;2022-09-09T05:30:54;24.10;51.30
46784;DHT22;32544;52.832;13.816;2022-09-09T05:31:55;24.10;51.30
46784;DHT22;32544;52.832;13.816;2022-09-09T05:32:56;24.10;51.20
46784;DHT22;32544;52.832;13.816;2022-09-09T05:33:56;24.10;51.20
46784;DHT22;32544;52.832;13.816;2022-09-09T05:34:57;24.10;51.30
46784;DHT22;32544;52.832;13.816;2022-09-09T05:36:05;24.10;51.30
46784;DHT22;32544;52.832;13.816;2022-09-09T05:37:07;24.10;51.30
46784;DHT22;32544;52.832;13.816;2022-09-09T05:38:08;24.10;51.40
46784;DHT22;32544;52.832;13.816;2022-09-09T05:39:09;24.10;51.40
46784;DHT22;32544;52.832;13.816;2022-09-09T05:40:12;24.10;51.30
46784;DHT22;32544;52.832;13.816;2022-09-09T05:41:14;24.10;51.30
46784;DHT22;32544;52.832;13.816;2022-09-09T05:42:18;24.10;51.30
46784;DHT22;32544;52.832;13.816;2022-09-09T05:43:19;24.10;51.30
46784;DHT22;32544;52.832;13.816;2022-09-09T05:44:20;24.10;51.20
46784;DHT22;32544;52.832;13.816;2022-09-09T05:45:21;24.10;51.20
46784;DHT22;32544;52.832;13.816;2022-09-09T05:46:22;24.10;51.30
46784;DHT22;32544;52.832;13.816;2022-09-09T05:47:25;24.10;51.20
46784;DHT22;32544;52.832;13.816;2022-09-09T05:48:28;24.10;51.20
46784;DHT22;32544;52.832;13.816;2022-09-09T05:49:30;24.10;51.20
46784;DHT22;32544;52.832;13.816;2022-09-09T05:50:30;24.10;51.20
46784;DHT22;32544;52.832;13.816;2022-09-09T05:51:32;24.10;51.10
46784;DHT22;32544;52.832;13.816;2022-09-09T05:52:37;24.20;51.30
46784;DHT22;32544;52.832;13.816;2022-09-09T05:53:39;24.10;51.30
46784;DHT22;32544;52.832;13.816;2022-09-09T05:54:40;24.10;51.30
46784;DHT22;32544;52.832;13.816;2022-09-09T05:55:42;24.20;51.30
46784;DHT22;32544;52.832;13.816;2022-09-09T05:56:42;24.20;51.20
46784;DHT22;32544;52.832;13.816;2022-09-09T05:57:47;24.20;51.20
46784;DHT22;32544;52.832;13.816;2022-09-09T05:58:48;24.20;51.10
46784;DHT22;32544;52.832;13.816;2022-09-09T05:59:49;24.20;51.10
46784;DHT22;32544;52.832;13.816;2022-09-09T06:00:50;24.20;51.10
46784;DHT22;32544;52.832;13.816;2022-09-09T06:01:51;24.20;51.10
46784;DHT22;32544;52.832;13.816;2022-09-09T06:03:00;24.20;51.10
46784;DHT22;32544;52.832;13.816;2022-09-09T06:04:01;24.20;51.10
46784;DHT22;32544;52.832;13.816;2022-09-09T06:05:02;24.20;51.10
46784;DHT22;32544;52.832;13.816;2022-09-09T06:06:04;24.20;51.10
46784;DHT22;32544;52.832;13.816;2022-09-09T06:07:08;24.20;51.20
46784;DHT22;32544;52.832;13.816;2022-09-09T06:08:09;24.20;51.10
46784;DHT22;32544;52.832;13.816;2022-09-09T06:09:09;24.20;51.00
46784;DHT22;32544;52.832;13.816;2022-09-09T06:10:11;24.20;51.00
46784;DHT22;32544;52.832;13.816;2022-09-09T06:11:17;24.20;51.00
46784;DHT22;32544;52.832;13.816;2022-09-09T06:12:17;24.20;51.10
46784;DHT22;32544;52.832;13.816;2022-09-09T06:13:18;24.20;51.10
46784;DHT22;32544;52.832;13.816;2022-09-09T06:14:19;24.20;51.10
46784;DHT22;32544;52.832;13.816;2022-09-09T06:15:22;24.20;51.10
46784;DHT22;32544;52.832;13.816;2022-09-09T06:16:23;24.20;51.00
46784;DHT22;32544;52.832;13.816;2022-09-09T06:17:24;24.20;51.10
46784;DHT22;32544;52.832;13.816;2022-09-09T06:18:25;24.20;51.10
46784;DHT22;32544;52.832;13.816;2022-09-09T06:19:27;24.20;51.20
46784;DHT22;32544;52.832;13.816;2022-09-09T06:20:30;24.20;51.20
46784;DHT22;32544;52.832;13.816;2022-09-09T06:21:33;24.20;51.20
46784;DHT22;32544;52.832;13.816;2022-09-09T06:22:35;24.20;51.20
46784;DHT22;32544;52.832;13.816;2022-09-09T06:23:36;24.20;51.30
46784;DHT22;32544;52.832;13.816;2022-09-09T06:24:37;24.20;51.30
46784;DHT22;32544;52.832;13.816;2022-09-09T06:25:38;24.20;51.40
46784;DHT22;32544;52.832;13.816;2022-09-09T06:26:41;24.20;51.50
46784;DHT22;32544;52.832;13.816;2022-09-09T06:27:47;24.20;51.40
46784;DHT22;32544;52.832;13.816;2022-09-09T06:28:49;24.20;51.50
46784;DHT22;32544;52.832;13.816;2022-09-09T06:29:50;24.20;51.50
46784;DHT22;32544;52.832;13.816;2022-09-09T06:30:56;24.20;51.50
46784;DHT22;32544;52.832;13.816;2022-09-09T06:31:58;24.20;51.50
46784;DHT22;32544;52.832;13.816;2022-09-09T06:33:00;24.20;51.40
46784;DHT22;32544;52.832;13.816;2022-09-09T06:34:02;24.20;51.30
46784;DHT22;32544;52.832;13.816;2022-09-09T06:35:04;24.20;51.40
46784;DHT22;32544;52.832;13.816;2022-09-09T06:36:05;24.20;51.40
46784;DHT22;32544;52.832;13.816;2022-09-09T06:37:06;24.20;51.40
46784;DHT22;32544;52.832;13.816;2022-09-09T06:38:21;24.20;51.50
46784;DHT22;32544;52.832;13.816;2022-09-09T06:39:23;24.20;51.60
46784;DHT22;32544;52.832;13.816;2022-09-09T06:40:24;24.20;51.70
46784;DHT22;32544;52.832;13.816;2022-09-09T06:41:26;24.20;51.70
46784;DHT22;32544;52.832;13.816;2022-09-09T06:42:27;24.20;51.70
46784;DHT22;32544;52.832;13.816;2022-09-09T06:44:00;24.20;51.60
46784;DHT22;32544;52.832;13.816;2022-09-09T06:45:14;24.20;51.70
46784;DHT22;32544;52.832;13.816;2022-09-09T06:46:23;24.20;51.80
46784;DHT22;32544;52.832;13.816;2022-09-09T06:47:28;24.20;52.00
46784;DHT22;32544;52.832;13.816;2022-09-09T06:48:30;24.10;51.90
46784;DHT22;32544;52.832;13.816;2022-09-09T06:49:30;24.10;52.60
46784;DHT22;32544;52.832;13.816;2022-09-09T06:50:31;24.10;52.00
46784;DHT22;32544;52.832;13.816;2022-09-09T06:51:33;24.10;52.00
46784;DHT22;32544;52.832;13.816;2022-09-09T06:52:36;24.10;52.10
46784;DHT22;32544;52.832;13.816;2022-09-09T06:53:38;24.10;51.90
46784;DHT22;32544;52.832;13.816;2022-09-09T06:54:38;24.10;52.00
46784;DHT22;32544;52.832;13.816;2022-09-09T06:55:40;24.10;52.00
46784;DHT22;32544;52.832;13.816;2022-09-09T06:56:45;24.10;51.90
46784;DHT22;32544;52.832;13.816;2022-09-09T06:57:53;24.20;51.90
46784;DHT22;32544;52.832;13.816;2022-09-09T06:58:57;24.20;51.90
46784;DHT22;32544;52.832;13.816;2022-09-09T07:00:02;24.20;51.80
46784;DHT22;32544;52.832;13.816;2022-09-09T07:01:04;24.20;51.80
46784;DHT22;32544;52.832;13.816;2022-09-09T07:02:05;24.20;51.90
46784;DHT22;32544;52.832;13.816;2022-09-09T07:03:06;24.20;51.90
46784;DHT22;32544;52.832;13.816;2022-09-09T07:04:07;24.20;52.00
46784;DHT22;32544;52.832;13.816;2022-09-09T07:05:10;24.20;51.90
46784;DHT22;32544;52.832;13.816;2022-09-09T07:06:13;24.20;52.00
46784;DHT22;32544;52.832;13.816;2022-09-09T07:07:15;24.20;51.90
46784;DHT22;32544;52.832;13.816;2022-09-09T07:08:16;24.20;51.90
46784;DHT22;32544;52.832;13.816;2022-09-09T07:09:17;24.20;51.90
46784;DHT22;32544;52.832;13.816;2022-09-09T07:10:20;24.20;51.90
46784;DHT22;32544;52.832;13.816;2022-09-09T07:11:21;24.20;51.90
46784;DHT22;32544;52.832;13.816;2022-09-09T07:12:22;24.20;51.90
46784;DHT22;32544;52.832;13.816;2022-09-09T07:13:29;24.20;51.80
46784;DHT22;32544;52.832;13.816;2022-09-09T07:14:30;24.20;51.80
46784;DHT22;32544;52.832;13.816;2022-09-09T07:15:34;24.20;51.80
46784;DHT22;32544;52.832;13.816;2022-09-09T07:16:35;24.20;51.80
46784;DHT22;32544;52.832;13.816;2022-09-09T07:17:37;24.20;51.90
46784;DHT22;32544;52.832;13.816;2022-09-09T07:18:39;24.20;51.90
46784;DHT22;32544;52.832;13.816;2022-09-09T07:19:40;24.20;51.80
46784;DHT22;32544;52.832;13.816;2022-09-09T07:20:41;24.20;51.80
46784;DHT22;32544;52.832;13.816;2022-09-09T07:21:42;24.20;51.80
46784;DHT22;32544;52.832;13.816;2022-09-09T07:22:44;24.20;51.80
46784;DHT22;32544;52.832;13.816;2022-09-09T07:23:45;24.20;51.90
46784;DHT22;32544;52.832;13.816;2022-09-09T07:24:46;24.20;51.90
46784;DHT22;32544;52.832;13.816;2022-09-09T07:25:48;24.20;51.80
46784;DHT22;32544;52.832;13.816;2022-09-09T07:26:50;24.20;51.90
46784;DHT22;32544;52.832;13.816;2022-09-09T07:27:52;24.20;51.80